createdAt,value
2022-12-11T00:00:40.992Z,52.43
2022-12-11T00:03:12.765Z,50.10
2022-12-11T00:05:42.514Z,67.07
2022-12-11T00:08:08.967Z,58.08
2022-12-11T00:10:37.943Z,59.15
2022-12-11T00:13:05.136Z,54.73
2022-12-11T00:15:32.201Z,52.13
2022-12-11T00:17:58.621Z,54.60
2022-12-11T00:20:25.045Z,55.47
2022-12-11T00:22:51.377Z,50.17
2022-12-11T00:25:17.890Z,52.43
2022-12-11T00:27:46.129Z,57.20
2022-12-11T00:30:13.182Z,68.80
2022-12-11T00:32:39.580Z,50.35
2022-12-11T00:35:06.167Z,57.92
2022-12-11T00:37:32.630Z,48.87
2022-12-11T00:39:59.074Z,55.15
2022-12-11T00:42:25.458Z,40.88
2022-12-11T00:44:52.085Z,47.13
2022-12-11T00:47:18.427Z,51.90
2022-12-11T00:49:49.569Z,52.80
2022-12-11T00:52:17.968Z,41.70
2022-12-11T00:54:44.929Z,60.83
2022-12-11T00:57:11.458Z,46.40
2022-12-11T00:59:37.866Z,67.68
2022-12-11T01:02:04.247Z,48.17
2022-12-11T01:04:30.630Z,53.10
2022-12-11T01:06:57.027Z,55.30
2022-12-11T01:09:41.789Z,55.95
2022-12-11T01:12:08.217Z,58.33
2022-12-11T01:14:34.605Z,68.37
2022-12-11T01:17:00.968Z,57.00
2022-12-11T01:19:27.404Z,60.70
2022-12-11T01:21:54.058Z,52.03
2022-12-11T01:24:20.621Z,54.88
2022-12-11T01:26:46.992Z,65.03
2022-12-11T01:29:13.305Z,58.50
2022-12-11T01:31:39.690Z,56.72
2022-12-11T01:34:06.040Z,65.93
2022-12-11T01:36:32.421Z,67.63
2022-12-11T01:38:58.798Z,58.40
2022-12-11T01:41:25.181Z,64.25
2022-12-11T01:44:03.736Z,63.13
2022-12-11T01:46:31.587Z,59.97
2022-12-11T01:48:59.764Z,53.83
2022-12-11T01:51:29.298Z,74.60
2022-12-11T01:54:02.301Z,56.70
2022-12-11T01:56:32.410Z,51.80
2022-12-11T01:59:02.920Z,54.88
2022-12-11T02:01:37.033Z,60.85
2022-12-11T02:04:04.317Z,60.50
2022-12-11T02:06:34.974Z,52.53
2022-12-11T02:09:03.336Z,61.38
2022-12-11T02:11:40.483Z,75.15
2022-12-11T02:14:48.503Z,50.25
2022-12-11T02:17:22.562Z,49.97
2022-12-11T02:20:12.921Z,54.25
2022-12-11T02:22:48.276Z,48.50
2022-12-11T02:25:25.665Z,53.35
2022-12-11T02:28:06.660Z,52.60
2022-12-11T02:30:37.099Z,56.70
2022-12-11T02:33:03.599Z,57.05
2022-12-11T02:35:38.089Z,61.63
2022-12-11T02:38:10.146Z,56.25
2022-12-11T02:40:39.857Z,62.75
2022-12-11T02:43:09.984Z,67.03
2022-12-11T02:45:39.699Z,49.72
2022-12-11T02:48:08.127Z,55.72
2022-12-11T02:50:37.948Z,56.22
2022-12-11T02:53:07.229Z,56.28
2022-12-11T02:55:37.327Z,49.93
2022-12-11T02:58:13.026Z,44.90
2022-12-11T03:00:39.562Z,53.95
2022-12-11T03:03:06.157Z,51.55
2022-12-11T03:05:32.681Z,53.00
2022-12-11T03:07:59.129Z,45.70
2022-12-11T03:10:25.570Z,41.92
2022-12-11T03:12:55.443Z,50.33
2022-12-11T03:15:30.175Z,55.63
2022-12-11T03:18:35.602Z,50.55
2022-12-11T03:21:23.984Z,50.73
2022-12-11T03:24:05.146Z,52.33
2022-12-11T03:26:39.178Z,50.58
2022-12-11T03:29:16.768Z,42.53
2022-12-11T03:32:09.489Z,52.00
2022-12-11T03:34:44.425Z,37.30
2022-12-11T03:37:13.221Z,39.20
2022-12-11T03:39:46.623Z,41.55
2022-12-11T03:42:16.441Z,42.28
2022-12-11T03:44:47.574Z,38.10
2022-12-11T03:47:19.750Z,37.80
2022-12-11T03:49:48.536Z,37.95
2022-12-11T03:52:16.821Z,42.17
2022-12-11T03:54:46.233Z,41.25
2022-12-11T03:57:16.101Z,37.70
2022-12-11T03:59:42.567Z,36.57
2022-12-11T04:02:10.693Z,38.42
2022-12-11T04:04:41.698Z,32.78
2022-12-11T04:07:09.178Z,39.80
2022-12-11T04:09:35.727Z,36.25
2022-12-11T04:12:02.045Z,29.13
2022-12-11T04:14:47.322Z,30.50
2022-12-11T04:17:33.654Z,30.98
2022-12-11T04:20:18.522Z,34.90
2022-12-11T04:23:03.246Z,31.65
2022-12-11T04:25:29.650Z,29.40
2022-12-11T04:27:56.025Z,26.88
2022-12-11T04:30:28.009Z,31.52
2022-12-11T04:32:57.178Z,32.88
2022-12-11T04:35:23.638Z,21.35
2022-12-11T04:37:50.242Z,31.23
2022-12-11T04:40:19.049Z,28.20
2022-12-11T04:42:45.701Z,26.52
2022-12-11T04:45:13.127Z,29.05
2022-12-11T04:47:41.255Z,21.83
2022-12-11T04:50:11.408Z,23.93
2022-12-11T04:52:37.863Z,24.42
2022-12-11T04:55:06.274Z,25.45
2022-12-11T04:57:32.673Z,22.80
2022-12-11T04:59:59.867Z,17.05
2022-12-11T05:02:26.804Z,25.40
2022-12-11T05:04:53.237Z,23.58
2022-12-11T05:07:19.601Z,22.35
2022-12-11T05:09:45.954Z,21.15
2022-12-11T05:12:12.287Z,18.75
2022-12-11T05:14:38.797Z,21.87
2022-12-11T05:17:05.186Z,29.33
2022-12-11T05:19:31.558Z,22.80
2022-12-11T05:21:57.940Z,20.23
2022-12-11T05:24:24.334Z,25.23
2022-12-11T05:26:50.743Z,24.23
2022-12-11T05:29:17.087Z,22.85
2022-12-11T05:31:43.738Z,20.88
2022-12-11T05:34:10.291Z,24.00
2022-12-11T05:36:36.933Z,19.80
2022-12-11T05:39:04.275Z,22.73
2022-12-11T05:41:32.674Z,25.17
2022-12-11T05:44:00.210Z,21.15
2022-12-11T05:46:29.182Z,18.50
2022-12-11T05:48:58.231Z,26.58
2022-12-11T05:51:25.448Z,24.77
2022-12-11T05:53:53.007Z,23.92
2022-12-11T05:56:28.195Z,20.05
2022-12-11T05:58:55.707Z,21.50
2022-12-11T06:01:26.550Z,19.85
2022-12-11T06:03:54.451Z,19.03
2022-12-11T06:06:21.221Z,18.92
2022-12-11T06:08:51.146Z,24.70
2022-12-11T06:11:23.609Z,20.67
2022-12-11T06:13:50.561Z,21.08
2022-12-11T06:16:17.098Z,21.43
2022-12-11T06:18:44.906Z,21.15
2022-12-11T06:21:15.071Z,21.88
2022-12-11T06:23:42.626Z,21.88
2022-12-11T06:26:10.329Z,24.52
2022-12-11T06:28:37.246Z,24.93
2022-12-11T06:31:04.748Z,20.75
2022-12-11T06:33:31.483Z,20.63
2022-12-11T06:36:05.904Z,26.30
2022-12-11T06:38:32.507Z,24.67
2022-12-11T06:41:02.472Z,26.83
2022-12-11T06:43:28.801Z,26.48
2022-12-11T06:45:59.167Z,25.70
2022-12-11T06:48:28.657Z,25.40
2022-12-11T06:50:55.052Z,25.50
2022-12-11T06:53:22.061Z,23.40
2022-12-11T06:55:48.401Z,22.10
2022-12-11T06:58:14.859Z,31.10
2022-12-11T07:00:41.323Z,29.80
2022-12-11T07:03:07.774Z,26.45
2022-12-11T07:05:34.463Z,28.67
2022-12-11T07:08:01.633Z,30.75
2022-12-11T07:10:28.025Z,26.17
2022-12-11T07:12:54.818Z,30.38
2022-12-11T07:15:21.320Z,32.17
2022-12-11T07:17:47.709Z,34.93
2022-12-11T07:20:14.284Z,32.30
2022-12-11T07:22:46.271Z,32.63
2022-12-11T07:25:13.663Z,30.70
2022-12-11T07:27:41.404Z,29.48
2022-12-11T07:30:09.111Z,30.90
2022-12-11T07:32:35.682Z,28.30
2022-12-11T07:35:02.198Z,26.60
2022-12-11T07:37:28.582Z,29.10
2022-12-11T07:39:54.995Z,26.60
2022-12-11T07:42:21.466Z,27.43
2022-12-11T07:44:47.946Z,29.13
2022-12-11T07:47:14.312Z,27.50
2022-12-11T07:49:40.698Z,28.00
2022-12-11T07:52:07.037Z,24.95
2022-12-11T07:54:33.399Z,25.00
2022-12-11T07:56:59.783Z,23.08
2022-12-11T07:59:26.231Z,25.20
2022-12-11T08:01:52.762Z,28.75
2022-12-11T08:04:19.215Z,22.42
2022-12-11T08:06:45.637Z,24.23
2022-12-11T08:09:20.613Z,26.38
2022-12-11T08:11:51.897Z,27.92
2022-12-11T08:14:19.535Z,28.90
2022-12-11T08:16:46.069Z,26.63
2022-12-11T08:19:13.309Z,28.37
2022-12-11T08:21:40.639Z,28.52
2022-12-11T08:24:08.828Z,26.55
2022-12-11T08:26:35.193Z,24.23
2022-12-11T08:29:02.585Z,27.02
2022-12-11T08:31:29.844Z,21.80
2022-12-11T08:33:57.248Z,34.03
2022-12-11T08:36:24.187Z,25.80
2022-12-11T08:38:51.188Z,29.30
2022-12-11T08:41:20.361Z,28.67
2022-12-11T08:43:47.015Z,26.07
2022-12-11T08:46:14.542Z,24.88
2022-12-11T08:48:42.563Z,23.80
2022-12-11T08:51:13.863Z,26.77
2022-12-11T08:53:40.671Z,21.17
2022-12-11T08:56:13.501Z,15.93
2022-12-11T08:58:39.993Z,17.60
2022-12-11T09:01:08.905Z,20.50
2022-12-11T09:03:37.025Z,20.70
2022-12-11T09:06:05.577Z,24.55
2022-12-11T09:08:33.381Z,17.60
2022-12-11T09:11:07.050Z,22.17
2022-12-11T09:13:33.808Z,21.63
2022-12-11T09:16:00.485Z,19.88
2022-12-11T09:18:27.217Z,24.55
2022-12-11T09:21:05.125Z,20.53
2022-12-11T09:23:31.549Z,21.63
2022-12-11T09:25:58.266Z,21.65
2022-12-11T09:28:25.822Z,19.08
2022-12-11T09:30:52.607Z,23.13
2022-12-11T09:33:19.202Z,18.37
2022-12-11T09:35:45.587Z,20.08
2022-12-11T09:38:11.978Z,24.05
2022-12-11T09:40:43.231Z,22.33
2022-12-11T09:43:16.913Z,21.45
2022-12-11T09:45:43.273Z,19.20
2022-12-11T09:48:11.094Z,23.88
2022-12-11T09:50:37.637Z,21.10
2022-12-11T09:53:13.050Z,22.70
2022-12-11T09:55:54.753Z,17.65
2022-12-11T09:58:34.495Z,21.93
2022-12-11T10:01:14.369Z,18.38
2022-12-11T10:03:50.314Z,25.52
2022-12-11T10:06:22.771Z,19.42
2022-12-11T10:09:13.775Z,21.77
2022-12-11T10:11:56.933Z,27.27
2022-12-11T10:14:44.175Z,17.92
2022-12-11T10:17:16.086Z,20.27
2022-12-11T10:19:42.931Z,21.42
2022-12-11T10:22:18.230Z,23.02
2022-12-11T10:27:41.432Z,18.20
2022-12-11T10:30:34.734Z,21.52
2022-12-11T10:33:38.777Z,17.30
2022-12-11T10:36:08.835Z,18.00
2022-12-11T10:38:41.147Z,18.87
2022-12-11T10:41:18.867Z,20.77
2022-12-11T10:43:48.872Z,20.80
2022-12-11T10:46:32.995Z,19.20
2022-12-11T10:49:00.541Z,19.35
2022-12-11T10:51:32.912Z,17.47
2022-12-11T10:54:24.716Z,14.00
2022-12-11T10:56:51.539Z,21.27
2022-12-11T10:59:29.642Z,15.05
2022-12-11T11:01:57.581Z,15.30
2022-12-11T11:04:31.222Z,19.53
2022-12-11T11:07:03.421Z,18.77
2022-12-11T11:09:35.449Z,18.92
2022-12-11T11:12:07.696Z,17.83
2022-12-11T11:14:34.654Z,15.77
2022-12-11T11:17:01.347Z,14.10
2022-12-11T11:19:32.404Z,17.88
2022-12-11T11:22:06.576Z,17.38
2022-12-11T11:24:40.570Z,15.85
2022-12-11T11:27:48.708Z,14.57
2022-12-11T11:30:35.306Z,13.47
2022-12-11T11:33:12.724Z,13.20
2022-12-11T11:35:44.222Z,18.88
2022-12-11T11:38:26.656Z,13.27
2022-12-11T11:41:10.107Z,17.48
2022-12-11T11:43:47.363Z,15.70
2022-12-11T11:46:25.758Z,16.70
2022-12-11T11:49:20.618Z,14.90
2022-12-11T11:52:01.043Z,14.57
2022-12-11T11:54:36.060Z,14.10
2022-12-11T11:57:15.710Z,14.53
2022-12-11T11:59:47.510Z,13.40
2022-12-11T12:02:16.701Z,15.38
2022-12-11T12:04:44.039Z,18.63
2022-12-11T12:07:23.725Z,16.00
2022-12-11T12:10:35.272Z,17.97
2022-12-11T12:13:44.743Z,13.15
2022-12-11T12:16:02.889Z,13.68
2022-12-11T12:18:58.615Z,14.25
2022-12-11T12:21:35.537Z,16.13
2022-12-11T12:24:35.951Z,14.33
2022-12-11T12:27:50.398Z,15.35
2022-12-11T12:30:21.988Z,14.82
2022-12-11T12:33:25.968Z,16.00
2022-12-11T12:36:13.432Z,17.58
2022-12-11T12:39:04.423Z,15.33
2022-12-11T12:41:30.848Z,14.18
2022-12-11T12:44:02.792Z,16.90
2022-12-11T12:46:54.978Z,14.30
2022-12-11T12:49:33.256Z,12.77
2022-12-11T12:52:01.814Z,18.10
2022-12-11T12:54:30.152Z,19.08
2022-12-11T12:56:58.796Z,11.63
2022-12-11T12:59:27.374Z,23.25
2022-12-11T13:01:59.919Z,13.35
2022-12-11T13:04:56.716Z,15.83
2022-12-11T13:07:30.075Z,13.88
2022-12-11T13:09:59.750Z,19.52
2022-12-11T13:12:41.905Z,16.70
2022-12-11T13:15:43.510Z,16.35
2022-12-11T13:18:34.796Z,15.70
2022-12-11T13:21:03.298Z,13.85
2022-12-11T13:23:32.194Z,16.88
2022-12-11T13:26:01.055Z,19.75
2022-12-11T13:28:33.094Z,20.85
2022-12-11T13:31:02.179Z,21.73
2022-12-11T13:33:30.452Z,20.25
2022-12-11T13:36:15.762Z,21.63
2022-12-11T13:38:48.927Z,18.40
2022-12-11T13:41:15.498Z,22.83
2022-12-11T13:43:44.042Z,21.97
2022-12-11T13:46:13.495Z,18.08
2022-12-11T13:48:47.788Z,22.95
2022-12-11T13:51:18.317Z,19.33
2022-12-11T13:53:45.297Z,19.90
2022-12-11T13:56:22.426Z,19.43
2022-12-11T13:58:49.020Z,21.73
2022-12-11T14:01:29.095Z,21.42
2022-12-11T14:03:58.918Z,18.80
2022-12-11T14:06:27.924Z,21.15
2022-12-11T14:08:57.077Z,23.43
2022-12-11T14:11:39.042Z,22.90
2022-12-11T14:14:16.536Z,21.92
2022-12-11T14:16:43.077Z,25.20
2022-12-11T14:19:10.865Z,26.80
2022-12-11T14:21:37.346Z,21.90
2022-12-11T14:24:06.434Z,25.80
2022-12-11T14:26:34.995Z,25.33
2022-12-11T14:29:02.734Z,23.15
2022-12-11T14:31:34.805Z,22.13
2022-12-11T14:34:28.127Z,26.53
2022-12-11T14:36:56.025Z,20.98
2022-12-11T14:39:33.877Z,23.25
2022-12-11T14:42:04.929Z,19.42
2022-12-11T14:44:42.266Z,25.95
2022-12-11T14:47:18.849Z,21.10
2022-12-11T14:49:54.340Z,22.35
2022-12-11T14:52:29.139Z,25.50
2022-12-11T14:55:03.781Z,26.38
2022-12-11T14:57:33.074Z,21.25
2022-12-11T14:59:59.954Z,27.57
2022-12-11T15:02:35.516Z,27.08
2022-12-11T15:05:10.713Z,26.30
2022-12-11T15:07:37.274Z,21.33
2022-12-11T15:10:04.569Z,25.80
2022-12-11T15:12:31.806Z,23.83
2022-12-11T15:15:06.313Z,21.38
2022-12-11T15:17:36.951Z,22.25
2022-12-11T15:20:08.692Z,29.08
2022-12-11T15:22:36.270Z,23.98
2022-12-11T15:25:03.617Z,22.77
2022-12-11T15:27:39.789Z,25.20
2022-12-11T15:30:26.368Z,27.00
2022-12-11T15:33:17.342Z,24.73
2022-12-11T15:35:56.235Z,25.77
2022-12-11T15:38:48.915Z,24.00
2022-12-11T15:41:20.965Z,21.35
2022-12-11T15:43:47.878Z,22.00
2022-12-11T15:46:14.351Z,27.63
2022-12-11T15:48:40.814Z,25.92
2022-12-11T15:51:07.287Z,22.93
2022-12-11T15:53:33.652Z,28.88
2022-12-11T15:56:00.363Z,23.48
2022-12-11T15:58:27.331Z,20.70
2022-12-11T16:00:54.661Z,23.42
2022-12-11T16:03:22.747Z,22.80
2022-12-11T16:05:51.342Z,19.67
2022-12-11T16:08:21.571Z,21.63
2022-12-11T16:10:48.735Z,26.55
2022-12-11T16:13:15.176Z,22.83
2022-12-11T16:15:44.695Z,21.60
2022-12-11T16:18:14.129Z,18.77
2022-12-11T16:20:41.660Z,19.27
2022-12-11T16:23:09.416Z,24.52
2022-12-11T16:25:39.930Z,20.75
2022-12-11T16:28:06.901Z,24.17
2022-12-11T16:30:35.879Z,21.10
2022-12-11T16:33:10.297Z,21.75
2022-12-11T16:35:38.688Z,18.50
2022-12-11T16:38:05.224Z,18.58
2022-12-11T16:40:31.662Z,21.00
2022-12-11T16:42:58.097Z,23.80
2022-12-11T16:45:26.099Z,22.45
2022-12-11T16:47:52.987Z,21.90
2022-12-11T16:50:19.682Z,21.35
2022-12-11T16:52:47.239Z,15.70
2022-12-11T16:55:15.064Z,21.20
2022-12-11T16:57:41.941Z,19.95
2022-12-11T17:00:12.070Z,20.70
2022-12-11T17:02:38.802Z,17.58
2022-12-11T17:05:05.544Z,16.30
2022-12-11T17:07:32.697Z,20.38
2022-12-11T17:10:00.566Z,19.67
2022-12-11T17:12:27.895Z,20.15
2022-12-11T17:14:55.584Z,22.15
2022-12-11T17:17:21.976Z,17.43
2022-12-11T17:19:48.384Z,21.60
2022-12-11T17:22:15.173Z,19.35
2022-12-11T17:24:41.529Z,18.83
2022-12-11T17:27:08.233Z,21.50
2022-12-11T17:29:34.658Z,16.73
2022-12-11T17:32:03.007Z,19.27
2022-12-11T17:34:34.588Z,18.08
2022-12-11T17:37:04.510Z,20.95
2022-12-11T17:39:32.342Z,17.75
2022-12-11T17:41:58.851Z,21.50
2022-12-11T17:44:26.507Z,16.25
2022-12-11T17:46:53.065Z,20.92
2022-12-11T17:49:19.728Z,17.45
2022-12-11T17:51:46.294Z,17.90
2022-12-11T17:54:12.811Z,17.53
2022-12-11T17:56:39.291Z,16.10
2022-12-11T17:59:05.911Z,22.58
2022-12-11T18:01:32.985Z,16.42
2022-12-11T18:04:01.634Z,17.63
2022-12-11T18:06:28.994Z,18.43
2022-12-11T18:08:55.795Z,16.50
2022-12-11T18:11:23.033Z,17.15
2022-12-11T18:13:50.742Z,15.60
2022-12-11T18:16:28.783Z,15.20
2022-12-11T18:18:56.387Z,16.20
2022-12-11T18:21:26.122Z,20.70
2022-12-11T18:23:53.387Z,14.52
2022-12-11T18:26:20.112Z,19.67
2022-12-11T18:28:47.547Z,14.68
2022-12-11T18:31:14.483Z,16.30
2022-12-11T18:33:42.806Z,20.67
2022-12-11T18:36:10.294Z,14.25
2022-12-11T18:38:37.190Z,15.70
2022-12-11T18:41:05.664Z,15.73
2022-12-11T18:43:32.421Z,15.60
2022-12-11T18:45:58.862Z,19.45
2022-12-11T18:48:25.229Z,14.05
2022-12-11T18:50:52.596Z,18.15
2022-12-11T18:53:19.521Z,14.52
2022-12-11T18:55:48.433Z,10.23
2022-12-11T18:58:16.944Z,12.77
2022-12-11T19:00:43.599Z,13.13
2022-12-11T19:03:10.759Z,10.80
2022-12-11T19:05:40.260Z,13.18
2022-12-11T19:08:06.735Z,12.87
2022-12-11T19:10:33.220Z,13.00
2022-12-11T19:12:59.630Z,12.40
2022-12-11T19:15:27.466Z,14.32
2022-12-11T19:17:53.814Z,10.23
2022-12-11T19:23:06.744Z,9.80
2022-12-11T19:25:33.622Z,14.20
2022-12-11T19:28:00.279Z,9.27
2022-12-11T19:30:26.709Z,14.85
2022-12-11T19:32:53.106Z,11.87
2022-12-11T19:35:19.576Z,13.50
2022-12-11T19:37:45.912Z,11.65
2022-12-11T19:40:14.323Z,11.15
2022-12-11T19:42:40.777Z,11.93
2022-12-11T19:45:07.500Z,13.33
2022-12-11T19:47:34.689Z,9.73
2022-12-11T19:50:01.017Z,11.18
2022-12-11T19:52:27.479Z,12.57
2022-12-11T19:54:53.893Z,14.73
2022-12-11T19:57:20.306Z,11.73
2022-12-11T19:59:47.997Z,10.90
2022-12-11T20:02:16.746Z,10.73
2022-12-11T20:04:43.206Z,13.18
2022-12-11T20:07:09.676Z,14.52
2022-12-11T20:09:36.029Z,16.10
2022-12-11T20:12:03.382Z,9.95
2022-12-11T20:14:29.912Z,13.63
2022-12-11T20:17:14.727Z,18.33
2022-12-11T20:19:42.106Z,18.45
2022-12-11T20:22:09.169Z,22.17
2022-12-11T20:24:35.946Z,14.05
2022-12-11T20:27:02.647Z,11.73
2022-12-11T20:29:29.053Z,12.95
2022-12-11T20:31:55.544Z,13.70
2022-12-11T20:34:21.986Z,11.43
2022-12-11T20:36:48.859Z,12.15
2022-12-11T20:39:15.577Z,11.73
2022-12-11T20:41:42.015Z,11.38
2022-12-11T20:44:08.491Z,13.48
2022-12-11T20:46:35.011Z,17.00
2022-12-11T20:49:01.584Z,14.18
2022-12-11T20:51:28.932Z,19.60
2022-12-11T20:53:59.064Z,14.82
2022-12-11T20:56:29.437Z,12.82
2022-12-11T20:58:57.508Z,13.73
2022-12-11T21:01:25.993Z,16.42
2022-12-11T21:03:53.479Z,14.75
2022-12-11T21:06:25.976Z,12.10
2022-12-11T21:08:53.782Z,13.20
2022-12-11T21:11:20.413Z,20.30
2022-12-11T21:13:46.936Z,17.40
2022-12-11T21:16:13.440Z,14.88
2022-12-11T21:18:41.429Z,12.18
2022-12-11T21:21:07.898Z,12.40
2022-12-11T21:23:34.574Z,12.70
2022-12-11T21:26:01.634Z,16.38
2022-12-11T21:28:33.566Z,13.80
2022-12-11T21:31:07.562Z,12.82
2022-12-11T21:33:34.101Z,37.17
2022-12-11T21:36:00.857Z,16.20
2022-12-11T21:38:29.368Z,15.73
2022-12-11T21:40:56.420Z,11.68
2022-12-11T21:43:24.012Z,15.98
2022-12-11T21:46:06.490Z,14.85
2022-12-11T21:48:33.237Z,16.77
2022-12-11T21:51:10.248Z,16.13
2022-12-11T21:53:36.904Z,18.95
2022-12-11T21:56:09.421Z,23.63
2022-12-11T21:58:37.689Z,15.35
2022-12-11T22:01:06.760Z,12.23
2022-12-11T22:03:33.219Z,15.38
2022-12-11T22:05:59.537Z,15.48
2022-12-11T22:08:26.025Z,14.98
2022-12-11T22:10:52.542Z,19.08
2022-12-11T22:13:19.093Z,12.67
2022-12-11T22:15:45.916Z,15.77
2022-12-11T22:18:12.866Z,14.48
2022-12-11T22:20:39.220Z,15.18
2022-12-11T22:23:05.548Z,23.45
2022-12-11T22:25:31.944Z,16.97
2022-12-11T22:27:58.347Z,14.57
2022-12-11T22:30:24.868Z,16.85
2022-12-11T22:32:51.271Z,18.90
2022-12-11T22:35:17.849Z,15.52
2022-12-11T22:37:44.190Z,11.37
2022-12-11T22:40:10.837Z,14.82
2022-12-11T22:42:37.185Z,14.30
2022-12-11T22:45:04.337Z,13.77
2022-12-11T22:47:30.723Z,12.00
2022-12-11T22:49:57.112Z,10.20
2022-12-11T22:52:23.563Z,15.35
2022-12-11T22:54:50.006Z,14.38
2022-12-11T22:57:16.350Z,11.88
2022-12-11T22:59:42.776Z,13.27
2022-12-11T23:02:09.368Z,14.90
2022-12-11T23:04:35.871Z,15.75
2022-12-11T23:07:02.383Z,15.70
2022-12-11T23:09:28.809Z,13.60
2022-12-11T23:11:55.738Z,14.88
2022-12-11T23:14:22.303Z,17.53
2022-12-11T23:16:48.735Z,14.40
2022-12-11T23:19:16.293Z,14.95
2022-12-11T23:21:44.183Z,16.60
2022-12-11T23:24:10.944Z,14.50
2022-12-11T23:26:37.509Z,14.93
2022-12-11T23:29:05.653Z,23.30
2022-12-11T23:31:32.879Z,13.52
2022-12-11T23:33:59.707Z,13.02
2022-12-11T23:36:26.597Z,12.73
2022-12-11T23:38:54.974Z,13.50
2022-12-11T23:41:22.365Z,20.00
2022-12-11T23:43:48.769Z,16.15
2022-12-11T23:46:19.019Z,10.90
2022-12-11T23:48:46.093Z,12.93
2022-12-11T23:51:15.430Z,15.80
2022-12-11T23:53:42.383Z,15.82
2022-12-11T23:56:12.358Z,17.70
2022-12-11T23:58:39.713Z,14.90
